Terminal Aerodrome Forecast
Issued by NWS Bismarck, ND

Home | Current Version | Previous Version | Text Only | Print | Product List | Glossary On
Versions: 1 2 3 4 5 6 7 8 9 10 11 12 13 14 15 16 17 18 19 20
000
FTUS43 KBIS 291737
TAFISN
TAF
KISN 291737Z 2918/3018 25014G20KT P6SM SCT050
     FM300200 26005KT P6SM FEW250
     FM300900 VRB04KT P6SM SCT150 BKN250
     FM301200 VRB03KT P6SM BKN120
     FM301500 04007KT P6SM VCTS SCT050CB BKN080 OVC150=

USA.gov is the U.S. government's official web portal to all federal, state and local government web resources and services.